createdAt,value
2022-09-14T00:01:40.357Z,0.90
2022-09-14T00:04:14.025Z,0.75
2022-09-14T00:06:42.193Z,1.02
2022-09-14T00:09:15.001Z,1.27
2022-09-14T00:11:41.719Z,1.00
2022-09-14T00:14:08.584Z,0.80
2022-09-14T00:16:39.370Z,0.90
2022-09-14T00:19:16.028Z,0.90
2022-09-14T00:21:42.857Z,0.85
2022-09-14T00:24:11.798Z,1.10
2022-09-14T00:26:38.578Z,1.20
2022-09-14T00:29:06.171Z,1.00
2022-09-14T00:31:38.205Z,1.52
2022-09-14T00:34:09.180Z,1.30
2022-09-14T00:36:41.919Z,1.48
2022-09-14T00:39:10.132Z,1.77
2022-09-14T00:41:41.597Z,1.55
2022-09-14T00:44:28.291Z,1.58
2022-09-14T00:47:00.444Z,1.20
2022-09-14T00:49:34.453Z,0.90
2022-09-14T00:52:09.057Z,1.35
2022-09-14T00:55:02.437Z,0.93
2022-09-14T00:57:37.763Z,0.90
2022-09-14T01:00:09.386Z,1.10
2022-09-14T01:02:37.220Z,0.88
2022-09-14T01:05:05.527Z,0.90
2022-09-14T01:08:21.586Z,1.33
2022-09-14T01:11:12.036Z,2.22
2022-09-14T01:14:23.251Z,1.90
2022-09-14T01:17:14.443Z,1.25
2022-09-14T01:20:04.201Z,1.20
2022-09-14T01:22:52.734Z,1.00
2022-09-14T01:26:06.803Z,1.20
2022-09-14T01:29:19.919Z,0.95
2022-09-14T01:32:32.978Z,0.90
2022-09-14T01:35:24.774Z,1.08
2022-09-14T01:38:03.136Z,1.00
2022-09-14T01:40:48.031Z,0.90
2022-09-14T01:43:20.391Z,0.95
2022-09-14T01:45:54.155Z,0.70
2022-09-14T01:48:35.575Z,1.10
2022-09-14T01:51:09.300Z,0.95
2022-09-14T01:53:45.325Z,0.77
2022-09-14T01:56:32.106Z,1.30
2022-09-14T01:59:38.133Z,1.00
2022-09-14T02:02:26.026Z,1.00
2022-09-14T02:05:03.679Z,0.93
2022-09-14T02:07:30.760Z,1.15
2022-09-14T02:09:57.487Z,0.88
2022-09-14T02:12:24.359Z,1.00
2022-09-14T02:14:54.058Z,1.13
2022-09-14T02:17:22.798Z,1.10
2022-09-14T02:20:03.526Z,0.88
2022-09-14T02:22:31.403Z,0.95
2022-09-14T02:24:58.533Z,0.85
2022-09-14T02:27:25.461Z,1.15
2022-09-14T02:29:53.220Z,0.82
2022-09-14T02:32:50.136Z,0.75
2022-09-14T02:35:50.595Z,0.95
2022-09-14T02:38:40.523Z,1.30
2022-09-14T02:41:39.951Z,0.90
2022-09-14T02:44:37.731Z,1.08
2022-09-14T02:47:25.784Z,0.93
2022-09-14T02:50:10.022Z,0.82
2022-09-14T02:55:39.730Z,0.82
2022-09-14T02:58:10.952Z,0.80
2022-09-14T03:00:42.909Z,1.05
2022-09-14T03:03:12.902Z,1.00
2022-09-14T03:05:40.420Z,1.20
2022-09-14T03:08:08.698Z,1.00
2022-09-14T03:10:35.432Z,1.38
2022-09-14T03:13:02.226Z,1.88
2022-09-14T03:15:30.568Z,1.02
2022-09-14T03:17:57.299Z,1.02
2022-09-14T03:20:28.870Z,0.85
2022-09-14T03:22:55.784Z,1.00
2022-09-14T03:25:25.231Z,0.85
2022-09-14T03:27:58.583Z,1.00
2022-09-14T03:30:27.627Z,1.02
2022-09-14T03:32:54.375Z,1.25
2022-09-14T03:35:21.320Z,1.23
2022-09-14T03:37:48.073Z,0.80
2022-09-14T03:40:21.665Z,0.88
2022-09-14T03:42:51.367Z,1.00
2022-09-14T03:45:19.979Z,1.02
2022-09-14T03:47:47.590Z,1.20
2022-09-14T03:50:16.576Z,1.20
2022-09-14T03:52:43.366Z,1.17
2022-09-14T03:55:11.061Z,0.90
2022-09-14T03:57:38.189Z,0.77
2022-09-14T04:00:07.588Z,0.93
2022-09-14T04:02:34.332Z,0.80
2022-09-14T04:05:01.233Z,0.93
2022-09-14T04:07:28.437Z,1.05
2022-09-14T04:09:56.151Z,1.10
2022-09-14T04:12:22.998Z,0.93
2022-09-14T04:14:49.827Z,1.10
2022-09-14T04:17:17.562Z,1.13
2022-09-14T04:19:44.541Z,0.85
2022-09-14T04:22:11.339Z,1.40
2022-09-14T04:24:38.240Z,1.00
2022-09-14T04:27:05.074Z,1.00
2022-09-14T04:29:32.017Z,1.48
2022-09-14T04:31:58.705Z,1.02
2022-09-14T04:34:25.676Z,1.20
2022-09-14T04:36:52.381Z,5.95
2022-09-14T04:39:19.565Z,1.83
2022-09-14T04:41:46.674Z,2.65
2022-09-14T04:44:13.827Z,1.25
2022-09-14T04:46:46.021Z,3.25
2022-09-14T04:49:15.193Z,3.33
2022-09-14T04:51:42.190Z,2.83
2022-09-14T04:54:14.249Z,1.80
2022-09-14T04:56:41.838Z,1.70
2022-09-14T04:59:08.722Z,1.40
2022-09-14T05:01:43.246Z,1.10
2022-09-14T05:04:11.868Z,2.10
2022-09-14T05:06:41.323Z,1.30
2022-09-14T05:09:16.690Z,1.30
2022-09-14T05:11:44.874Z,1.10
2022-09-14T05:14:13.962Z,1.45
2022-09-14T05:16:43.841Z,1.05
2022-09-14T05:19:18.292Z,1.10
2022-09-14T05:21:45.781Z,1.10
2022-09-14T05:24:18.401Z,1.13
2022-09-14T05:26:46.492Z,1.08
2022-09-14T05:29:17.126Z,1.27
2022-09-14T05:31:44.860Z,1.60
2022-09-14T05:34:12.216Z,1.52
2022-09-14T05:36:39.872Z,1.08
2022-09-14T05:39:08.047Z,1.83
2022-09-14T05:41:35.094Z,1.48
2022-09-14T05:44:01.993Z,1.27
2022-09-14T05:46:29.037Z,1.48
2022-09-14T05:48:55.857Z,1.38
2022-09-14T05:51:25.622Z,1.33
2022-09-14T05:53:56.898Z,1.27
2022-09-14T05:56:27.188Z,1.25
2022-09-14T05:58:54.283Z,1.02
2022-09-14T06:01:31.032Z,1.15
2022-09-14T06:04:02.352Z,1.45
2022-09-14T06:06:31.848Z,1.33
2022-09-14T06:08:59.925Z,1.30
2022-09-14T06:11:30.978Z,1.17
2022-09-14T06:13:58.602Z,1.52
2022-09-14T06:16:27.796Z,1.50
2022-09-14T06:18:57.429Z,1.27
2022-09-14T06:21:28.904Z,1.40
2022-09-14T06:23:56.116Z,1.30
2022-09-14T06:26:23.187Z,1.45
2022-09-14T06:28:50.047Z,1.52
2022-09-14T06:31:18.710Z,1.20
2022-09-14T06:33:47.132Z,1.05
2022-09-14T06:36:20.594Z,1.30
2022-09-14T06:38:51.633Z,1.20
2022-09-14T06:41:22.868Z,1.50
2022-09-14T06:43:50.773Z,1.52
2022-09-14T06:46:23.591Z,1.45
2022-09-14T06:49:07.996Z,1.90
2022-09-14T06:51:44.807Z,1.38
2022-09-14T06:54:15.342Z,1.58
2022-09-14T06:56:44.082Z,1.70
2022-09-14T06:59:13.787Z,1.67
2022-09-14T07:01:40.694Z,1.45
2022-09-14T07:04:08.206Z,1.50
2022-09-14T07:06:48.472Z,1.88
2022-09-14T07:09:17.436Z,1.80
2022-09-14T07:11:44.829Z,1.92
2022-09-14T07:14:12.580Z,2.05
2022-09-14T07:16:40.540Z,2.20
2022-09-14T07:19:12.327Z,2.22
2022-09-14T07:21:39.556Z,1.67
2022-09-14T07:24:06.827Z,1.58
2022-09-14T07:26:42.497Z,1.52
2022-09-14T07:29:16.913Z,1.95
2022-09-14T07:31:49.581Z,1.95
2022-09-14T07:34:17.279Z,1.83
2022-09-14T07:36:45.053Z,1.50
2022-09-14T07:39:15.118Z,1.60
2022-09-14T07:41:43.292Z,1.70
2022-09-14T07:44:14.777Z,1.52
2022-09-14T07:46:43.920Z,1.50
2022-09-14T07:49:12.568Z,1.50
2022-09-14T07:51:40.192Z,1.50
2022-09-14T07:54:11.330Z,1.33
2022-09-14T07:56:38.478Z,1.63
2022-09-14T07:59:34.592Z,1.70
2022-09-14T08:01:52.423Z,2.13
2022-09-14T08:04:19.297Z,1.65
2022-09-14T08:06:46.088Z,1.80
2022-09-14T08:09:12.874Z,1.50
2022-09-14T08:11:39.767Z,1.58
2022-09-14T08:14:11.323Z,1.60
2022-09-14T08:16:40.394Z,1.58
2022-09-14T08:19:15.230Z,2.30
2022-09-14T08:21:46.552Z,1.52
2022-09-14T08:24:18.914Z,1.23
2022-09-14T08:26:46.388Z,1.50
2022-09-14T08:29:15.404Z,1.48
2022-09-14T08:31:43.243Z,1.63
2022-09-14T08:34:10.115Z,1.58
2022-09-14T08:36:40.085Z,2.00
2022-09-14T08:39:10.090Z,1.48
2022-09-14T08:41:44.932Z,1.27
2022-09-14T08:44:11.583Z,1.27
2022-09-14T08:47:05.679Z,1.67
2022-09-14T08:49:57.682Z,1.63
2022-09-14T08:52:47.859Z,1.55
2022-09-14T08:55:48.145Z,1.33
2022-09-14T08:58:57.337Z,1.58
2022-09-14T09:01:48.905Z,1.23
2022-09-14T09:04:41.700Z,1.80
2022-09-14T09:08:07.214Z,1.35
2022-09-14T09:10:37.707Z,1.33
2022-09-14T09:13:07.674Z,1.42
2022-09-14T09:15:54.989Z,1.27
2022-09-14T09:18:39.689Z,1.40
2022-09-14T09:21:26.421Z,1.50
2022-09-14T09:24:17.233Z,1.35
2022-09-14T09:26:44.134Z,1.17
2022-09-14T09:29:11.995Z,1.63
2022-09-14T09:31:45.227Z,1.35
2022-09-14T09:34:20.281Z,1.17
2022-09-14T09:36:49.672Z,1.20
2022-09-14T09:39:17.436Z,1.20
2022-09-14T09:42:08.714Z,1.50
2022-09-14T09:45:03.599Z,1.10
2022-09-14T09:47:37.682Z,1.30
2022-09-14T09:50:18.583Z,1.30
2022-09-14T09:53:02.064Z,1.15
2022-09-14T09:55:38.962Z,1.20
2022-09-14T09:58:36.704Z,1.63
2022-09-14T10:01:31.540Z,2.08
2022-09-14T10:04:08.534Z,1.38
2022-09-14T10:06:44.996Z,1.20
2022-09-14T10:09:19.402Z,1.70
2022-09-14T10:11:49.800Z,1.45
2022-09-14T10:14:35.983Z,1.45
2022-09-14T10:17:22.548Z,1.10
2022-09-14T10:19:54.667Z,1.70
2022-09-14T10:22:33.665Z,1.38
2022-09-14T10:25:03.191Z,1.50
2022-09-14T10:27:48.426Z,1.02
2022-09-14T10:30:22.782Z,1.20
2022-09-14T10:33:10.379Z,1.50
2022-09-14T10:36:16.333Z,1.30
2022-09-14T10:38:53.090Z,1.17
2022-09-14T10:41:51.115Z,1.60
2022-09-14T10:44:45.684Z,1.30
2022-09-14T10:47:52.264Z,1.48
2022-09-14T10:50:56.840Z,1.40
2022-09-14T10:53:41.055Z,1.45
2022-09-14T10:56:33.601Z,1.10
2022-09-14T10:59:21.989Z,1.40
2022-09-14T11:02:29.568Z,1.60
2022-09-14T11:05:34.165Z,1.58
2022-09-14T11:08:13.840Z,1.60
2022-09-14T11:11:23.607Z,1.50
2022-09-14T11:14:16.641Z,1.67
2022-09-14T11:17:16.693Z,1.52
2022-09-14T11:20:22.150Z,1.50
2022-09-14T11:23:22.725Z,1.50
2022-09-14T11:26:24.612Z,1.70
2022-09-14T11:29:03.136Z,1.50
2022-09-14T11:31:52.113Z,1.02
2022-09-14T11:34:43.405Z,1.10
2022-09-14T11:37:16.389Z,1.13
2022-09-14T11:39:53.901Z,1.25
2022-09-14T11:42:57.840Z,1.13
2022-09-14T11:45:55.111Z,1.38
2022-09-14T11:48:51.796Z,1.35
2022-09-14T11:51:32.431Z,1.35
2022-09-14T11:53:59.281Z,1.40
2022-09-14T11:56:33.086Z,1.00
2022-09-14T11:59:05.556Z,1.00
2022-09-14T12:01:39.175Z,1.38
2022-09-14T12:06:51.284Z,1.40
2022-09-14T12:09:19.998Z,1.38
2022-09-14T12:11:49.930Z,1.23
2022-09-14T12:14:29.584Z,1.17
2022-09-14T12:17:37.878Z,1.10
2022-09-14T12:20:41.280Z,1.30
2022-09-14T12:23:39.030Z,1.42
2022-09-14T12:26:12.078Z,1.40
2022-09-14T12:28:53.028Z,1.20
2022-09-14T12:31:36.243Z,1.45
2022-09-14T12:34:33.150Z,1.38
2022-09-14T12:37:08.746Z,1.48
2022-09-14T12:39:38.750Z,1.17
2022-09-14T12:42:32.199Z,1.38
2022-09-14T12:45:51.619Z,1.48
2022-09-14T12:48:49.477Z,1.45
2022-09-14T12:51:28.959Z,1.25
2022-09-14T12:54:01.588Z,1.30
2022-09-14T12:56:38.276Z,1.23
2022-09-14T12:59:24.403Z,1.25
2022-09-14T13:02:39.645Z,1.65
2022-09-14T13:05:16.009Z,1.20
2022-09-14T13:07:43.454Z,1.40
2022-09-14T13:10:44.514Z,1.30
2022-09-14T13:13:32.086Z,1.30
2022-09-14T13:16:06.331Z,1.23
2022-09-14T13:18:37.290Z,1.52
2022-09-14T13:21:20.821Z,1.30
2022-09-14T13:23:48.406Z,1.80
2022-09-14T13:26:27.042Z,1.23
2022-09-14T13:28:56.539Z,1.30
2022-09-14T13:31:33.891Z,1.30
2022-09-14T13:34:03.088Z,1.50
2022-09-14T13:36:35.477Z,1.25
2022-09-14T13:39:03.645Z,1.02
2022-09-14T13:41:31.329Z,1.88
2022-09-14T13:43:59.877Z,1.40
2022-09-14T13:46:27.764Z,1.30
2022-09-14T13:48:55.985Z,1.50
2022-09-14T13:51:27.840Z,1.40
2022-09-14T13:53:58.023Z,1.27
2022-09-14T13:56:33.876Z,1.35
2022-09-14T13:59:10.510Z,1.40
2022-09-14T14:01:43.743Z,1.27
2022-09-14T14:04:39.036Z,1.42
2022-09-14T14:07:21.942Z,1.42
2022-09-14T14:09:52.320Z,1.33
2022-09-14T14:12:39.581Z,1.27
2022-09-14T14:15:26.689Z,1.77
2022-09-14T14:17:54.625Z,1.88
2022-09-14T14:20:24.115Z,1.55
2022-09-14T14:23:06.359Z,1.55
2022-09-14T14:26:05.594Z,1.45
2022-09-14T14:28:32.559Z,1.20
2022-09-14T14:31:07.860Z,1.08
2022-09-14T14:33:36.929Z,1.40
2022-09-14T14:36:09.364Z,1.45
2022-09-14T14:38:36.392Z,1.45
2022-09-14T14:41:04.668Z,1.55
2022-09-14T14:43:31.827Z,1.58
2022-09-14T14:46:01.451Z,1.40
2022-09-14T14:48:29.456Z,1.25
2022-09-14T14:50:56.282Z,1.20
2022-09-14T14:53:26.259Z,1.58
2022-09-14T14:55:53.354Z,1.33
2022-09-14T14:58:21.646Z,1.02
2022-09-14T15:00:49.120Z,1.40
2022-09-14T15:03:16.608Z,1.38
2022-09-14T15:05:45.662Z,1.25
2022-09-14T15:08:15.169Z,1.23
2022-09-14T15:10:42.497Z,0.95
2022-09-14T15:13:10.905Z,1.23
2022-09-14T15:15:42.826Z,1.27
2022-09-14T15:18:09.838Z,1.73
2022-09-14T15:20:37.146Z,1.30
2022-09-14T15:23:04.274Z,1.23
2022-09-14T15:25:30.985Z,1.10
2022-09-14T15:27:58.266Z,1.30
2022-09-14T15:30:25.391Z,1.40
2022-09-14T15:32:52.228Z,1.30
2022-09-14T15:35:19.125Z,1.33
2022-09-14T15:37:47.397Z,1.20
2022-09-14T15:40:14.470Z,1.00
2022-09-14T15:42:41.262Z,1.50
2022-09-14T15:45:08.937Z,1.08
2022-09-14T15:47:36.789Z,0.93
2022-09-14T15:50:05.903Z,1.20
2022-09-14T15:52:36.659Z,1.25
2022-09-14T15:55:06.993Z,1.20
2022-09-14T15:57:33.995Z,1.20
2022-09-14T16:00:01.245Z,1.23
2022-09-14T16:02:28.124Z,1.33
2022-09-14T16:04:55.502Z,1.10
2022-09-14T16:07:23.802Z,1.13
2022-09-14T16:09:50.521Z,1.20
2022-09-14T16:12:17.224Z,1.00
2022-09-14T16:14:43.973Z,1.20
2022-09-14T16:17:11.290Z,1.45
2022-09-14T16:19:38.559Z,1.60
2022-09-14T16:22:05.391Z,1.27
2022-09-14T16:24:32.691Z,1.38
2022-09-14T16:26:59.818Z,1.15
2022-09-14T16:29:26.864Z,1.02
2022-09-14T16:31:54.207Z,0.90
2022-09-14T16:34:28.745Z,1.10
2022-09-14T16:36:58.509Z,0.98
2022-09-14T16:39:28.935Z,1.30
2022-09-14T16:41:55.988Z,1.60
2022-09-14T16:44:26.756Z,1.35
2022-09-14T16:46:57.555Z,1.25
2022-09-14T16:49:27.532Z,1.50
2022-09-14T16:51:56.520Z,1.45
2022-09-14T16:54:25.472Z,1.60
2022-09-14T16:56:56.835Z,1.60
2022-09-14T16:59:23.660Z,2.22
2022-09-14T17:01:54.743Z,2.22
2022-09-14T17:04:24.041Z,1.50
2022-09-14T17:06:52.435Z,1.77
2022-09-14T17:09:23.810Z,1.77
2022-09-14T17:11:51.462Z,1.63
2022-09-14T17:14:24.322Z,1.88
2022-09-14T17:16:51.214Z,1.40
2022-09-14T17:19:18.961Z,1.17
2022-09-14T17:21:47.459Z,1.50
2022-09-14T17:24:16.663Z,1.13
2022-09-14T17:26:43.745Z,1.30
2022-09-14T17:29:11.482Z,1.23
2022-09-14T17:31:42.881Z,1.50
2022-09-14T17:34:13.379Z,1.67
2022-09-14T17:36:40.235Z,2.10
2022-09-14T17:39:11.674Z,2.45
2022-09-14T17:41:39.740Z,1.40
2022-09-14T17:44:09.779Z,1.75
2022-09-14T17:46:41.460Z,1.38
2022-09-14T17:49:13.999Z,1.30
2022-09-14T17:51:41.172Z,1.63
2022-09-14T17:54:08.091Z,1.25
2022-09-14T17:56:34.807Z,1.55
2022-09-14T17:59:09.857Z,1.63
2022-09-14T18:01:37.267Z,1.50
2022-09-14T18:04:07.615Z,1.60
2022-09-14T18:06:38.838Z,2.08
2022-09-14T18:09:11.528Z,1.63
2022-09-14T18:11:38.458Z,1.95
2022-09-14T18:14:06.449Z,1.60
2022-09-14T18:16:33.624Z,2.53
2022-09-14T18:19:00.675Z,2.85
2022-09-14T18:21:27.488Z,2.67
2022-09-14T18:23:55.226Z,2.47
2022-09-14T18:26:24.656Z,3.03
2022-09-14T18:28:55.963Z,2.45
2022-09-14T18:31:23.467Z,2.60
2022-09-14T18:33:54.824Z,3.03
2022-09-14T18:36:22.619Z,3.30
2022-09-14T18:38:51.414Z,3.67
2022-09-14T18:41:19.623Z,3.50
2022-09-14T18:43:51.374Z,3.10
2022-09-14T18:46:19.139Z,4.57
2022-09-14T18:48:47.662Z,3.67
2022-09-14T18:51:14.735Z,4.55
2022-09-14T18:53:42.414Z,13.68
2022-09-14T18:56:13.480Z,9.27
2022-09-14T18:58:45.039Z,5.55
2022-09-14T19:01:13.172Z,4.80
2022-09-14T19:03:42.455Z,4.00
2022-09-14T19:06:16.319Z,3.15
2022-09-14T19:08:44.021Z,3.33
2022-09-14T19:11:23.469Z,2.70
2022-09-14T19:14:01.600Z,2.80
2022-09-14T19:16:29.641Z,2.35
2022-09-14T19:18:56.562Z,2.50
2022-09-14T19:21:28.111Z,2.60
2022-09-14T19:24:16.663Z,2.55
2022-09-14T19:26:47.631Z,2.47
2022-09-14T19:29:19.841Z,2.50
2022-09-14T19:31:51.051Z,2.33
2022-09-14T19:34:24.362Z,2.50
2022-09-14T19:36:51.895Z,2.60
2022-09-14T19:39:18.651Z,2.25
2022-09-14T19:41:45.424Z,3.20
2022-09-14T19:44:12.856Z,2.55
2022-09-14T19:46:40.177Z,2.20
2022-09-14T19:49:14.702Z,2.40
2022-09-14T19:51:41.564Z,2.63
2022-09-14T19:54:09.650Z,2.40
2022-09-14T19:56:37.247Z,3.05
2022-09-14T19:59:07.286Z,2.35
2022-09-14T20:01:37.566Z,2.20
2022-09-14T20:04:06.954Z,2.65
2022-09-14T20:06:40.176Z,2.85
2022-09-14T20:09:16.834Z,2.67
2022-09-14T20:11:46.050Z,2.30
2022-09-14T20:14:20.508Z,2.45
2022-09-14T20:16:52.047Z,3.22
2022-09-14T20:19:22.269Z,3.30
2022-09-14T20:21:51.323Z,2.97
2022-09-14T20:24:27.932Z,2.63
2022-09-14T20:26:59.299Z,2.35
2022-09-14T20:29:30.486Z,2.67
2022-09-14T20:31:58.394Z,2.13
2022-09-14T20:34:25.916Z,1.92
2022-09-14T20:36:53.914Z,2.05
2022-09-14T20:39:23.375Z,2.58
2022-09-14T20:41:50.477Z,2.60
2022-09-14T20:44:22.003Z,2.15
2022-09-14T20:46:50.387Z,2.72
2022-09-14T20:49:21.225Z,3.05
2022-09-14T20:51:48.009Z,2.60
2022-09-14T20:54:17.729Z,2.63
2022-09-14T20:56:46.204Z,2.40
2022-09-14T20:59:16.924Z,2.55
2022-09-14T21:01:47.207Z,2.28
2022-09-14T21:04:18.638Z,2.35
2022-09-14T21:06:49.649Z,2.55
2022-09-14T21:09:18.137Z,2.55
2022-09-14T21:11:46.848Z,2.03
2022-09-14T21:14:16.802Z,2.90
2022-09-14T21:16:46.730Z,2.55
2022-09-14T21:19:19.475Z,2.55
2022-09-14T21:21:48.201Z,2.65
2022-09-14T21:24:17.181Z,2.70
2022-09-14T21:26:45.124Z,2.90
2022-09-14T21:29:21.021Z,2.65
2022-09-14T21:31:48.828Z,2.55
2022-09-14T21:34:16.810Z,2.67
2022-09-14T21:36:47.067Z,2.45
2022-09-14T21:39:19.220Z,2.30
2022-09-14T21:41:46.268Z,2.47
2022-09-14T21:44:13.853Z,2.30
2022-09-14T21:46:41.796Z,2.47
2022-09-14T21:49:17.392Z,2.20
2022-09-14T21:51:44.386Z,2.42
2022-09-14T21:54:13.251Z,2.42
2022-09-14T21:56:45.872Z,2.45
2022-09-14T21:59:17.274Z,2.13
2022-09-14T22:01:44.716Z,2.65
2022-09-14T22:04:23.529Z,3.13
2022-09-14T22:06:51.567Z,2.08
2022-09-14T22:09:20.862Z,2.40
2022-09-14T22:11:48.034Z,2.55
2022-09-14T22:14:19.114Z,2.20
2022-09-14T22:16:47.682Z,2.03
2022-09-14T22:19:21.894Z,2.10
2022-09-14T22:21:50.939Z,2.40
2022-09-14T22:24:22.757Z,2.25
2022-09-14T22:26:50.439Z,1.95
2022-09-14T22:29:18.645Z,2.03
2022-09-14T22:31:46.528Z,1.90
2022-09-14T22:34:14.918Z,1.80
2022-09-14T22:36:42.140Z,1.67
2022-09-14T22:39:10.703Z,1.88
2022-09-14T22:41:37.615Z,1.98
2022-09-14T22:44:06.162Z,1.50
2022-09-14T22:46:34.745Z,1.83
2022-09-14T22:49:01.494Z,1.55
2022-09-14T22:51:29.862Z,1.80
2022-09-14T22:53:56.791Z,1.55
2022-09-14T22:56:26.130Z,1.98
2022-09-14T22:58:53.290Z,1.92
2022-09-14T23:01:31.934Z,1.73
2022-09-14T23:04:06.490Z,2.70
2022-09-14T23:06:44.121Z,2.30
2022-09-14T23:09:16.152Z,2.10
2022-09-14T23:11:44.678Z,1.58
2022-09-14T23:14:13.718Z,1.40
2022-09-14T23:16:41.835Z,1.80
2022-09-14T23:19:08.702Z,1.90
2022-09-14T23:21:35.867Z,1.35
2022-09-14T23:24:06.193Z,1.83
2022-09-14T23:26:34.182Z,1.70
2022-09-14T23:29:05.389Z,2.35
2022-09-14T23:31:33.098Z,1.60
2022-09-14T23:34:02.577Z,1.60
2022-09-14T23:36:29.626Z,1.83
2022-09-14T23:38:57.214Z,1.85
2022-09-14T23:41:26.182Z,1.50
2022-09-14T23:43:53.861Z,1.60
2022-09-14T23:46:22.006Z,1.75
2022-09-14T23:48:50.153Z,1.58
2022-09-14T23:51:17.357Z,1.63
2022-09-14T23:53:44.138Z,1.73
2022-09-14T23:56:11.707Z,1.75
2022-09-14T23:58:38.965Z,1.67
